Current | Forecast
Updated: 2:00 PM JST on August 22, 2017
Observed at Hyakuri AB, Japan
Temperature 88°F
Humidity 58%
Dew Point 72°F
Wind SSW at 9 mph
Pressure 29.89 in (Steady)
Conditions Mostly Cloudy
Visibility 6.2 miles
UV 4 out of 16
Clouds (FEW) : 2000 ft
Scattered Clouds (SCT) : 3000 ft
Mostly Cloudy (BKN) : 25000 ft
Yesterday's Maximum 82°F
Yesterday's Minimum 72°F approx.
Yesterday's Cooling Degree Days 12 approx.
Sunrise5:00 AM JST
Sunset6:19 PM JST
Moon Rise5:08 AM JST
Moon Set6:41 PM JST
Moon PhaseMoon Phase
New Moon
Raw METARMETAR RJAH 220500Z 20008KT 9999 FEW020 SCT030 BKN250 31/22 Q1012


Monday
. High: 75° F.
Tuesday
. High: 78° F.
Wednesday
. High: 69° F.
Thursday
. High: 75° F.
Friday
. High: 75° F.
Saturday
. High: 80° F.
Sunday
. High: 77° F.
Monday
. High: 68° F.

Units: English | Metric

Find the Weather for any City, State or Zipcode, or Country:

U.S. State List | Severe Weather | Tropical Storms | Ski Conditions
United States | Canada | Central America | South America | Asia | Europe | Australia | Africa | Islands

Weather Underground

© Copyright 2017
The Weather Company, LLC